sensor_id;sensor_type;location;lat;lon;timestamp;pressure;altitude;pressure_sealevel;temperature;humidity
13954;BME280;7049;49.444;8.522;2023-05-25T00:00:27;-11160.47;;;-3.47;46.15
13954;BME280;7049;49.444;8.522;2023-05-25T00:05:28;-11160.47;;;-3.47;46.85
13954;BME280;7049;49.444;8.522;2023-05-25T00:10:31;-11160.47;;;-3.47;47.82
13954;BME280;7049;49.444;8.522;2023-05-25T00:15:33;-11160.47;;;-3.47;48.27
13954;BME280;7049;49.444;8.522;2023-05-25T00:20:34;-11160.47;;;-3.47;48.95
13954;BME280;7049;49.444;8.522;2023-05-25T00:25:37;-11160.47;;;-3.47;48.68
13954;BME280;7049;49.444;8.522;2023-05-25T00:30:38;-11160.47;;;-3.47;48.30
13954;BME280;7049;49.444;8.522;2023-05-25T00:35:43;-11160.47;;;-3.47;48.78
13954;BME280;7049;49.444;8.522;2023-05-25T00:40:47;-11160.47;;;-3.47;49.34
13954;BME280;7049;49.444;8.522;2023-05-25T00:45:48;-11160.47;;;-3.47;49.68
13954;BME280;7049;49.444;8.522;2023-05-25T00:50:53;-11160.47;;;-3.47;50.07
13954;BME280;7049;49.444;8.522;2023-05-25T00:56:01;-11160.47;;;-3.47;50.65
13954;BME280;7049;49.444;8.522;2023-05-25T01:01:05;-11160.47;;;-3.47;51.36
13954;BME280;7049;49.444;8.522;2023-05-25T01:06:14;-11160.47;;;-3.47;51.58
13954;BME280;7049;49.444;8.522;2023-05-25T01:11:18;-11160.47;;;-3.47;52.08
13954;BME280;7049;49.444;8.522;2023-05-25T01:16:23;-11160.47;;;-3.47;51.74
13954;BME280;7049;49.444;8.522;2023-05-25T01:21:29;-11160.47;;;-3.47;51.58
13954;BME280;7049;49.444;8.522;2023-05-25T01:26:46;-11160.47;;;-3.47;52.04
13954;BME280;7049;49.444;8.522;2023-05-25T01:31:50;-11160.47;;;-3.47;52.13
13954;BME280;7049;49.444;8.522;2023-05-25T01:36:54;-11160.47;;;-3.47;52.82
13954;BME280;7049;49.444;8.522;2023-05-25T01:41:56;-11160.47;;;-3.47;53.49
13954;BME280;7049;49.444;8.522;2023-05-25T01:47:02;-11160.47;;;-3.47;54.14
13954;BME280;7049;49.444;8.522;2023-05-25T01:52:13;-11160.47;;;-3.47;53.95
13954;BME280;7049;49.444;8.522;2023-05-25T01:57:17;-11160.47;;;-3.47;54.61
13954;BME280;7049;49.444;8.522;2023-05-25T02:02:19;-11160.47;;;-3.47;55.53
13954;BME280;7049;49.444;8.522;2023-05-25T02:07:25;-11160.47;;;-3.47;55.48
13954;BME280;7049;49.444;8.522;2023-05-25T02:12:27;-11160.47;;;-3.47;56.09
13954;BME280;7049;49.444;8.522;2023-05-25T02:17:28;-11160.47;;;-3.47;56.60
13954;BME280;7049;49.444;8.522;2023-05-25T02:22:32;-11160.47;;;-3.47;56.61
13954;BME280;7049;49.444;8.522;2023-05-25T02:27:34;-11160.47;;;-3.47;57.50
13954;BME280;7049;49.444;8.522;2023-05-25T02:32:35;-11160.47;;;-3.47;58.48
13954;BME280;7049;49.444;8.522;2023-05-25T02:37:38;-11160.47;;;-3.47;58.38
13954;BME280;7049;49.444;8.522;2023-05-25T02:42:40;-11160.47;;;-3.47;58.96
13954;BME280;7049;49.444;8.522;2023-05-25T02:47:42;-11160.47;;;-3.47;59.32
13954;BME280;7049;49.444;8.522;2023-05-25T02:52:45;-11160.47;;;-3.47;59.88
13954;BME280;7049;49.444;8.522;2023-05-25T02:57:52;-11160.47;;;-3.47;60.39
13954;BME280;7049;49.444;8.522;2023-05-25T03:02:53;-11160.47;;;-3.47;60.99
13954;BME280;7049;49.444;8.522;2023-05-25T03:08:23;-11160.47;;;-3.47;61.20
13954;BME280;7049;49.444;8.522;2023-05-25T03:13:25;-11160.47;;;-3.47;61.50
13954;BME280;7049;49.444;8.522;2023-05-25T03:18:38;-11160.47;;;-3.47;61.64
13954;BME280;7049;49.444;8.522;2023-05-25T03:23:41;-11160.47;;;-3.47;61.50
13954;BME280;7049;49.444;8.522;2023-05-25T03:28:43;-11160.47;;;-3.47;61.95
13954;BME280;7049;49.444;8.522;2023-05-25T03:33:44;-11160.47;;;-3.47;62.78
13954;BME280;7049;49.444;8.522;2023-05-25T03:38:47;-11160.47;;;-3.47;63.11
13954;BME280;7049;49.444;8.522;2023-05-25T03:43:50;-11160.47;;;-3.47;62.84
13954;BME280;7049;49.444;8.522;2023-05-25T03:48:52;-11160.47;;;-3.47;63.52
13954;BME280;7049;49.444;8.522;2023-05-25T03:53:57;-11160.47;;;-3.47;63.70
13954;BME280;7049;49.444;8.522;2023-05-25T03:58:58;-11160.47;;;-3.47;64.98
13954;BME280;7049;49.444;8.522;2023-05-25T04:04:01;-11160.47;;;-3.47;65.81
13954;BME280;7049;49.444;8.522;2023-05-25T04:09:04;-11160.47;;;-3.47;65.40
13954;BME280;7049;49.444;8.522;2023-05-25T04:14:08;-11160.47;;;-3.47;66.10
13954;BME280;7049;49.444;8.522;2023-05-25T04:19:09;-11160.47;;;-3.47;66.11
13954;BME280;7049;49.444;8.522;2023-05-25T04:24:12;-11160.47;;;-3.47;66.16
13954;BME280;7049;49.444;8.522;2023-05-25T04:29:13;-11160.47;;;-3.47;66.37
13954;BME280;7049;49.444;8.522;2023-05-25T04:34:15;-11160.47;;;-3.47;66.28
13954;BME280;7049;49.444;8.522;2023-05-25T04:39:18;-11160.47;;;-3.47;64.71
13954;BME280;7049;49.444;8.522;2023-05-25T04:44:19;-11160.47;;;-3.47;65.35
13954;BME280;7049;49.444;8.522;2023-05-25T04:49:21;-11160.47;;;-3.47;65.30
13954;BME280;7049;49.444;8.522;2023-05-25T04:54:26;-11160.47;;;-3.47;64.34
13954;BME280;7049;49.444;8.522;2023-05-25T04:59:28;-11160.47;;;-3.47;64.01
13954;BME280;7049;49.444;8.522;2023-05-25T05:04:29;-11160.47;;;-3.47;63.33
13954;BME280;7049;49.444;8.522;2023-05-25T05:09:32;-11160.47;;;-3.47;63.48
13954;BME280;7049;49.444;8.522;2023-05-25T05:14:33;-11160.47;;;-3.47;64.27
13954;BME280;7049;49.444;8.522;2023-05-25T05:19:35;-11160.47;;;-3.47;63.74
13954;BME280;7049;49.444;8.522;2023-05-25T05:24:38;-11160.47;;;-3.47;62.58
13954;BME280;7049;49.444;8.522;2023-05-25T05:29:39;-11160.47;;;-3.47;62.69
13954;BME280;7049;49.444;8.522;2023-05-25T05:34:41;-11160.47;;;-3.47;62.03
13954;BME280;7049;49.444;8.522;2023-05-25T05:39:44;-11160.47;;;-3.47;61.67
13954;BME280;7049;49.444;8.522;2023-05-25T05:44:45;-11160.47;;;-3.47;61.38
13954;BME280;7049;49.444;8.522;2023-05-25T05:49:47;-11160.47;;;-3.47;61.66
13954;BME280;7049;49.444;8.522;2023-05-25T05:54:49;-11160.47;;;-3.47;61.47
13954;BME280;7049;49.444;8.522;2023-05-25T05:59:51;-11160.47;;;-3.47;60.91
13954;BME280;7049;49.444;8.522;2023-05-25T06:04:52;-11160.47;;;-3.47;60.54
13954;BME280;7049;49.444;8.522;2023-05-25T06:09:55;-11160.47;;;-3.47;59.53
13954;BME280;7049;49.444;8.522;2023-05-25T06:14:57;-11160.47;;;-3.47;57.95
13954;BME280;7049;49.444;8.522;2023-05-25T06:19:58;-11160.47;;;-3.47;56.31
13954;BME280;7049;49.444;8.522;2023-05-25T06:25:01;-11160.47;;;-3.47;55.27
13954;BME280;7049;49.444;8.522;2023-05-25T06:30:04;-11160.47;;;-3.47;53.60
13954;BME280;7049;49.444;8.522;2023-05-25T06:35:06;-11160.47;;;-3.47;52.06
13954;BME280;7049;49.444;8.522;2023-05-25T06:40:10;-11160.47;;;-3.47;51.52
13954;BME280;7049;49.444;8.522;2023-05-25T06:45:12;-11160.47;;;-3.47;49.61
13954;BME280;7049;49.444;8.522;2023-05-25T06:50:13;-11160.47;;;-3.47;48.50
13954;BME280;7049;49.444;8.522;2023-05-25T06:55:19;-11160.47;;;-3.47;47.68
13954;BME280;7049;49.444;8.522;2023-05-25T07:00:21;-11160.47;;;-3.47;45.97
13954;BME280;7049;49.444;8.522;2023-05-25T07:05:24;-11160.47;;;-3.47;45.08
13954;BME280;7049;49.444;8.522;2023-05-25T07:10:27;-11160.47;;;-3.47;44.74
13954;BME280;7049;49.444;8.522;2023-05-25T07:15:29;-11160.47;;;-3.47;44.40
13954;BME280;7049;49.444;8.522;2023-05-25T07:20:30;-11160.47;;;-3.47;43.86
13954;BME280;7049;49.444;8.522;2023-05-25T07:25:34;-11160.47;;;-3.47;43.26
13954;BME280;7049;49.444;8.522;2023-05-25T07:30:36;-11160.47;;;-3.47;41.91
13954;BME280;7049;49.444;8.522;2023-05-25T07:35:38;-11160.47;;;-3.47;41.34
13954;BME280;7049;49.444;8.522;2023-05-25T07:40:40;-11160.47;;;-3.47;41.05
13954;BME280;7049;49.444;8.522;2023-05-25T07:45:43;-11160.47;;;-3.47;40.74
13954;BME280;7049;49.444;8.522;2023-05-25T07:50:45;-11160.47;;;-3.47;39.68
13954;BME280;7049;49.444;8.522;2023-05-25T07:55:47;-11160.47;;;-3.47;38.69
13954;BME280;7049;49.444;8.522;2023-05-25T08:00:49;-11160.47;;;-3.47;38.52
13954;BME280;7049;49.444;8.522;2023-05-25T08:05:50;-11160.47;;;-3.47;38.08
13954;BME280;7049;49.444;8.522;2023-05-25T08:10:53;-11160.47;;;-3.47;38.14
13954;BME280;7049;49.444;8.522;2023-05-25T08:15:55;-11160.47;;;-3.47;36.97
13954;BME280;7049;49.444;8.522;2023-05-25T08:21:03;-11160.47;;;-3.47;36.83
13954;BME280;7049;49.444;8.522;2023-05-25T08:26:06;-11160.47;;;-3.47;36.03
13954;BME280;7049;49.444;8.522;2023-05-25T08:31:07;-11160.47;;;-3.47;35.61
13954;BME280;7049;49.444;8.522;2023-05-25T08:36:08;-11160.47;;;-3.47;35.69
13954;BME280;7049;49.444;8.522;2023-05-25T08:41:13;-11160.47;;;-3.47;35.42
13954;BME280;7049;49.444;8.522;2023-05-25T08:46:27;-11160.47;;;-3.47;34.36
13954;BME280;7049;49.444;8.522;2023-05-25T08:51:35;-11160.47;;;-3.47;34.51
13954;BME280;7049;49.444;8.522;2023-05-25T08:56:48;-11160.47;;;-3.47;35.09
13954;BME280;7049;49.444;8.522;2023-05-25T09:01:55;-11160.47;;;-3.47;34.17
13954;BME280;7049;49.444;8.522;2023-05-25T09:07:00;-11160.47;;;-3.47;34.11
13954;BME280;7049;49.444;8.522;2023-05-25T09:12:07;-11160.47;;;-3.47;33.68
13954;BME280;7049;49.444;8.522;2023-05-25T09:17:11;-11160.47;;;-3.47;33.29
13954;BME280;7049;49.444;8.522;2023-05-25T09:22:13;-11160.47;;;-3.47;33.10
13954;BME280;7049;49.444;8.522;2023-05-25T09:27:20;-11160.47;;;-3.47;33.37
13954;BME280;7049;49.444;8.522;2023-05-25T09:32:24;-11160.47;;;-3.47;33.25
13954;BME280;7049;49.444;8.522;2023-05-25T09:37:27;-11160.47;;;-3.47;32.01
13954;BME280;7049;49.444;8.522;2023-05-25T09:42:31;-11160.47;;;-3.47;33.05
13954;BME280;7049;49.444;8.522;2023-05-25T09:47:35;-11160.47;;;-3.47;32.73
13954;BME280;7049;49.444;8.522;2023-05-25T09:52:37;-11160.47;;;-3.47;32.25
13954;BME280;7049;49.444;8.522;2023-05-25T09:57:40;-11160.47;;;-3.47;31.76
13954;BME280;7049;49.444;8.522;2023-05-25T10:02:45;-11160.47;;;-3.47;31.51
13954;BME280;7049;49.444;8.522;2023-05-25T10:07:46;-11160.47;;;-3.47;31.42
13954;BME280;7049;49.444;8.522;2023-05-25T10:12:52;-11160.47;;;-3.47;31.85
13954;BME280;7049;49.444;8.522;2023-05-25T10:17:57;-11160.47;;;-3.47;30.88
13954;BME280;7049;49.444;8.522;2023-05-25T10:23:04;-11160.47;;;-3.47;31.25
13954;BME280;7049;49.444;8.522;2023-05-25T10:28:13;-11160.47;;;-3.47;30.30
13954;BME280;7049;49.444;8.522;2023-05-25T10:33:20;-11160.47;;;-3.47;30.77
13954;BME280;7049;49.444;8.522;2023-05-25T10:38:21;-11160.47;;;-3.47;31.05
13954;BME280;7049;49.444;8.522;2023-05-25T10:43:27;-11160.47;;;-3.47;30.92
13954;BME280;7049;49.444;8.522;2023-05-25T10:48:35;-11160.47;;;-3.47;30.74
13954;BME280;7049;49.444;8.522;2023-05-25T10:53:42;-11160.47;;;-3.47;30.71
13954;BME280;7049;49.444;8.522;2023-05-25T10:58:46;-11160.47;;;-3.47;30.80
13954;BME280;7049;49.444;8.522;2023-05-25T11:03:55;-11160.47;;;-3.47;31.13
13954;BME280;7049;49.444;8.522;2023-05-25T11:08:59;-11160.47;;;-3.47;30.62
13954;BME280;7049;49.444;8.522;2023-05-25T11:14:03;-11160.47;;;-3.47;30.25
13954;BME280;7049;49.444;8.522;2023-05-25T11:19:13;-11160.47;;;-3.47;29.55
13954;BME280;7049;49.444;8.522;2023-05-25T11:24:16;-11160.47;;;-3.47;29.95
13954;BME280;7049;49.444;8.522;2023-05-25T11:29:19;-11160.47;;;-3.47;30.12
13954;BME280;7049;49.444;8.522;2023-05-25T11:34:22;-11160.47;;;-3.47;29.54
13954;BME280;7049;49.444;8.522;2023-05-25T11:39:25;-11160.47;;;-3.47;30.58
13954;BME280;7049;49.444;8.522;2023-05-25T11:44:28;-11160.47;;;-3.47;30.39
13954;BME280;7049;49.444;8.522;2023-05-25T11:49:30;-11160.47;;;-3.47;30.15
13954;BME280;7049;49.444;8.522;2023-05-25T11:54:34;-11160.47;;;-3.47;29.49
13954;BME280;7049;49.444;8.522;2023-05-25T11:59:37;-11160.47;;;-3.47;29.92
13954;BME280;7049;49.444;8.522;2023-05-25T12:04:38;-11160.47;;;-3.47;29.50
13954;BME280;7049;49.444;8.522;2023-05-25T12:09:42;-11160.47;;;-3.47;29.78
13954;BME280;7049;49.444;8.522;2023-05-25T12:14:49;-11160.47;;;-3.47;29.17
13954;BME280;7049;49.444;8.522;2023-05-25T12:19:50;-11160.47;;;-3.47;29.97
13954;BME280;7049;49.444;8.522;2023-05-25T12:24:52;-11160.47;;;-3.47;28.88
13954;BME280;7049;49.444;8.522;2023-05-25T12:30:00;-11160.47;;;-3.47;29.25
13954;BME280;7049;49.444;8.522;2023-05-25T12:35:03;-11160.47;;;-3.47;28.94
13954;BME280;7049;49.444;8.522;2023-05-25T12:40:22;-11160.47;;;-3.47;28.93
13954;BME280;7049;49.444;8.522;2023-05-25T12:45:32;-11160.47;;;-3.47;29.10
13954;BME280;7049;49.444;8.522;2023-05-25T12:50:34;-11160.47;;;-3.47;28.80
13954;BME280;7049;49.444;8.522;2023-05-25T12:55:36;-11160.47;;;-3.47;28.83
13954;BME280;7049;49.444;8.522;2023-05-25T13:00:39;-11160.47;;;-3.47;28.00
13954;BME280;7049;49.444;8.522;2023-05-25T13:05:41;-11160.47;;;-3.47;28.82
13954;BME280;7049;49.444;8.522;2023-05-25T13:10:43;-11160.47;;;-3.47;28.88
13954;BME280;7049;49.444;8.522;2023-05-25T13:15:51;-11160.47;;;-3.47;28.09
13954;BME280;7049;49.444;8.522;2023-05-25T13:20:53;-11160.47;;;-3.47;28.35
13954;BME280;7049;49.444;8.522;2023-05-25T13:25:55;-11160.47;;;-3.47;28.13
13954;BME280;7049;49.444;8.522;2023-05-25T13:31:00;-11160.47;;;-3.47;27.92
13954;BME280;7049;49.444;8.522;2023-05-25T13:36:14;-11160.47;;;-3.47;27.92
13954;BME280;7049;49.444;8.522;2023-05-25T13:41:27;-11160.47;;;-3.47;27.45
13954;BME280;7049;49.444;8.522;2023-05-25T13:46:31;-11160.47;;;-3.47;27.85
13954;BME280;7049;49.444;8.522;2023-05-25T13:51:32;-11160.47;;;-3.47;26.98
13954;BME280;7049;49.444;8.522;2023-05-25T13:56:34;-11160.47;;;-3.47;27.20
13954;BME280;7049;49.444;8.522;2023-05-25T14:01:37;-11160.47;;;-3.47;27.02
13954;BME280;7049;49.444;8.522;2023-05-25T14:06:38;-11160.47;;;-3.47;27.50
13954;BME280;7049;49.444;8.522;2023-05-25T14:11:40;-11160.47;;;-3.47;27.15
13954;BME280;7049;49.444;8.522;2023-05-25T14:16:46;-11160.47;;;-3.47;27.43
13954;BME280;7049;49.444;8.522;2023-05-25T14:21:48;-11160.47;;;-3.47;26.97
13954;BME280;7049;49.444;8.522;2023-05-25T14:26:49;-11160.47;;;-3.47;27.09
13954;BME280;7049;49.444;8.522;2023-05-25T14:31:52;-11160.47;;;-3.47;26.99
13954;BME280;7049;49.444;8.522;2023-05-25T14:36:54;-11160.47;;;-3.47;26.86
13954;BME280;7049;49.444;8.522;2023-05-25T14:41:55;-11160.47;;;-3.47;26.99
13954;BME280;7049;49.444;8.522;2023-05-25T14:46:58;-11160.47;;;-3.47;27.03
13954;BME280;7049;49.444;8.522;2023-05-25T14:52:00;-11160.47;;;-3.47;26.85
13954;BME280;7049;49.444;8.522;2023-05-25T14:57:01;-11160.47;;;-3.47;26.99
13954;BME280;7049;49.444;8.522;2023-05-25T15:02:07;-11160.47;;;-3.47;27.12
13954;BME280;7049;49.444;8.522;2023-05-25T15:07:09;-11160.47;;;-3.47;26.88
13954;BME280;7049;49.444;8.522;2023-05-25T15:12:11;-11160.47;;;-3.47;27.26
13954;BME280;7049;49.444;8.522;2023-05-25T15:17:17;-11160.47;;;-3.47;27.15
13954;BME280;7049;49.444;8.522;2023-05-25T15:22:18;-11160.47;;;-3.47;26.88
13954;BME280;7049;49.444;8.522;2023-05-25T15:27:20;-11160.47;;;-3.47;26.40
13954;BME280;7049;49.444;8.522;2023-05-25T15:32:23;-11160.47;;;-3.47;26.73
13954;BME280;7049;49.444;8.522;2023-05-25T15:37:25;-11160.47;;;-3.47;26.73
13954;BME280;7049;49.444;8.522;2023-05-25T15:42:26;-11160.47;;;-3.47;26.86
13954;BME280;7049;49.444;8.522;2023-05-25T15:47:29;-11160.47;;;-3.47;26.62
13954;BME280;7049;49.444;8.522;2023-05-25T15:52:36;-11160.47;;;-3.47;26.56
13954;BME280;7049;49.444;8.522;2023-05-25T15:57:38;-11160.47;;;-3.47;26.85
13954;BME280;7049;49.444;8.522;2023-05-25T16:02:42;-11160.47;;;-3.47;26.75
13954;BME280;7049;49.444;8.522;2023-05-25T16:07:56;-11160.47;;;-3.47;26.93
13954;BME280;7049;49.444;8.522;2023-05-25T16:13:03;-11160.47;;;-3.47;26.78
13954;BME280;7049;49.444;8.522;2023-05-25T16:18:16;-11160.47;;;-3.47;27.00
13954;BME280;7049;49.444;8.522;2023-05-25T16:23:18;-11160.47;;;-3.47;26.65
13954;BME280;7049;49.444;8.522;2023-05-25T16:28:33;-11160.47;;;-3.47;26.91
13954;BME280;7049;49.444;8.522;2023-05-25T16:33:44;-11160.47;;;-3.47;26.88
13954;BME280;7049;49.444;8.522;2023-05-25T16:38:55;-11160.47;;;-3.47;26.95
13954;BME280;7049;49.444;8.522;2023-05-25T16:44:02;-11160.47;;;-3.47;27.17
13954;BME280;7049;49.444;8.522;2023-05-25T16:49:15;-11160.47;;;-3.47;26.64
13954;BME280;7049;49.444;8.522;2023-05-25T16:54:20;-11160.47;;;-3.47;27.26
13954;BME280;7049;49.444;8.522;2023-05-25T16:59:23;-11160.47;;;-3.47;27.42
13954;BME280;7049;49.444;8.522;2023-05-25T17:04:26;-11160.47;;;-3.47;27.70
13954;BME280;7049;49.444;8.522;2023-05-25T17:09:27;-11160.47;;;-3.47;27.85
13954;BME280;7049;49.444;8.522;2023-05-25T17:14:28;-11160.47;;;-3.47;28.17
13954;BME280;7049;49.444;8.522;2023-05-25T17:19:35;-11160.47;;;-3.47;28.51
13954;BME280;7049;49.444;8.522;2023-05-25T17:24:38;-11160.47;;;-3.47;29.29
13954;BME280;7049;49.444;8.522;2023-05-25T17:29:39;-11160.47;;;-3.47;30.09
13954;BME280;7049;49.444;8.522;2023-05-25T17:34:43;-11160.47;;;-3.47;30.22
13954;BME280;7049;49.444;8.522;2023-05-25T17:39:48;-11160.47;;;-3.47;30.74
13954;BME280;7049;49.444;8.522;2023-05-25T17:44:50;-11160.47;;;-3.47;31.31
13954;BME280;7049;49.444;8.522;2023-05-25T17:50:03;-11160.47;;;-3.47;31.48
13954;BME280;7049;49.444;8.522;2023-05-25T17:55:19;-11160.47;;;-3.47;32.23
13954;BME280;7049;49.444;8.522;2023-05-25T18:00:26;-11160.47;;;-3.47;32.41
13954;BME280;7049;49.444;8.522;2023-05-25T18:05:31;-11160.47;;;-3.47;33.05
13954;BME280;7049;49.444;8.522;2023-05-25T18:10:46;-11160.47;;;-3.47;33.15
13954;BME280;7049;49.444;8.522;2023-05-25T18:15:49;-11160.47;;;-3.47;33.30
13954;BME280;7049;49.444;8.522;2023-05-25T18:20:52;-11160.47;;;-3.47;33.54
13954;BME280;7049;49.444;8.522;2023-05-25T18:25:53;-11160.47;;;-3.47;33.91
13954;BME280;7049;49.444;8.522;2023-05-25T18:30:55;-11160.47;;;-3.47;34.43
13954;BME280;7049;49.444;8.522;2023-05-25T18:35:58;-11160.47;;;-3.47;34.68
13954;BME280;7049;49.444;8.522;2023-05-25T18:40:59;-11160.47;;;-3.47;34.96
13954;BME280;7049;49.444;8.522;2023-05-25T18:46:01;-11160.47;;;-3.47;35.34
13954;BME280;7049;49.444;8.522;2023-05-25T18:51:04;-11160.47;;;-3.47;35.65
13954;BME280;7049;49.444;8.522;2023-05-25T18:56:05;-11160.47;;;-3.47;35.97
13954;BME280;7049;49.444;8.522;2023-05-25T19:01:08;-11160.47;;;-3.47;36.55
13954;BME280;7049;49.444;8.522;2023-05-25T19:06:11;-11160.47;;;-3.47;36.86
13954;BME280;7049;49.444;8.522;2023-05-25T19:11:20;-11160.47;;;-3.47;37.08
13954;BME280;7049;49.444;8.522;2023-05-25T19:16:23;-11160.47;;;-3.47;37.25
13954;BME280;7049;49.444;8.522;2023-05-25T19:22:04;-11160.47;;;-3.47;37.51
13954;BME280;7049;49.444;8.522;2023-05-25T19:28:19;-11160.47;;;-3.47;38.26
13954;BME280;7049;49.444;8.522;2023-05-25T19:33:58;-11160.47;;;-3.47;38.47
13954;BME280;7049;49.444;8.522;2023-05-25T19:39:50;-11160.47;;;-3.47;38.47
13954;BME280;7049;49.444;8.522;2023-05-25T19:50:24;-11160.47;;;-3.47;39.30
13954;BME280;7049;49.444;8.522;2023-05-25T19:55:45;-11160.47;;;-3.47;39.78
13954;BME280;7049;49.444;8.522;2023-05-25T20:13:31;-11160.47;;;-3.47;40.94
13954;BME280;7049;49.444;8.522;2023-05-25T20:24:27;-11160.47;;;-3.47;42.06
13954;BME280;7049;49.444;8.522;2023-05-25T20:29:30;-11160.47;;;-3.47;42.66
13954;BME280;7049;49.444;8.522;2023-05-25T20:35:20;-11160.47;;;-3.47;43.20
13954;BME280;7049;49.444;8.522;2023-05-25T20:42:08;-11160.47;;;-3.47;43.37
13954;BME280;7049;49.444;8.522;2023-05-25T20:58:44;-11160.47;;;-3.47;45.43
13954;BME280;7049;49.444;8.522;2023-05-25T21:03:46;-11160.47;;;-3.47;45.92
13954;BME280;7049;49.444;8.522;2023-05-25T21:08:49;-11160.47;;;-3.47;46.23
13954;BME280;7049;49.444;8.522;2023-05-25T21:13:52;-11160.47;;;-3.47;46.12
13954;BME280;7049;49.444;8.522;2023-05-25T21:18:53;-11160.47;;;-3.47;45.90
13954;BME280;7049;49.444;8.522;2023-05-25T21:23:59;-11160.47;;;-3.47;46.64
13954;BME280;7049;49.444;8.522;2023-05-25T21:29:01;-11160.47;;;-3.47;47.20
13954;BME280;7049;49.444;8.522;2023-05-25T21:34:03;-11160.47;;;-3.47;47.09
13954;BME280;7049;49.444;8.522;2023-05-25T21:39:06;-11160.47;;;-3.47;47.67
13954;BME280;7049;49.444;8.522;2023-05-25T21:44:08;-11160.47;;;-3.47;47.97
13954;BME280;7049;49.444;8.522;2023-05-25T21:49:09;-11160.47;;;-3.47;48.31
13954;BME280;7049;49.444;8.522;2023-05-25T21:54:12;-11160.47;;;-3.47;49.14
13954;BME280;7049;49.444;8.522;2023-05-25T21:59:14;-11160.47;;;-3.47;48.96
13954;BME280;7049;49.444;8.522;2023-05-25T22:04:15;-11160.47;;;-3.47;49.48
13954;BME280;7049;49.444;8.522;2023-05-25T22:09:18;-11160.47;;;-3.47;50.23
13954;BME280;7049;49.444;8.522;2023-05-25T22:14:19;-11160.47;;;-3.47;50.74
13954;BME280;7049;49.444;8.522;2023-05-25T22:19:21;-11160.47;;;-3.47;51.31
13954;BME280;7049;49.444;8.522;2023-05-25T22:24:24;-11160.47;;;-3.47;51.88
13954;BME280;7049;49.444;8.522;2023-05-25T22:29:27;-11160.47;;;-3.47;52.11
13954;BME280;7049;49.444;8.522;2023-05-25T22:34:31;-11160.47;;;-3.47;52.24
13954;BME280;7049;49.444;8.522;2023-05-25T22:39:34;-11160.47;;;-3.47;52.30
13954;BME280;7049;49.444;8.522;2023-05-25T22:44:35;-11160.47;;;-3.47;52.36
13954;BME280;7049;49.444;8.522;2023-05-25T22:49:37;-11160.47;;;-3.47;52.73
13954;BME280;7049;49.444;8.522;2023-05-25T22:54:43;-11160.47;;;-3.47;52.63
13954;BME280;7049;49.444;8.522;2023-05-25T22:59:48;-11160.47;;;-3.47;52.64
13954;BME280;7049;49.444;8.522;2023-05-25T23:04:49;-11160.47;;;-3.47;53.24
13954;BME280;7049;49.444;8.522;2023-05-25T23:09:53;-11160.47;;;-3.47;53.24
13954;BME280;7049;49.444;8.522;2023-05-25T23:14:54;-11160.47;;;-3.47;53.99
13954;BME280;7049;49.444;8.522;2023-05-25T23:19:58;-11160.47;;;-3.47;54.27
13954;BME280;7049;49.444;8.522;2023-05-25T23:25:02;-11160.47;;;-3.47;54.10
13954;BME280;7049;49.444;8.522;2023-05-25T23:30:05;-11160.47;;;-3.47;54.76
13954;BME280;7049;49.444;8.522;2023-05-25T23:35:07;-11160.47;;;-3.47;55.31
13954;BME280;7049;49.444;8.522;2023-05-25T23:40:10;-11160.47;;;-3.47;55.73
13954;BME280;7049;49.444;8.522;2023-05-25T23:45:12;-11160.47;;;-3.47;56.48
13954;BME280;7049;49.444;8.522;2023-05-25T23:50:16;-11160.47;;;-3.47;56.11
13954;BME280;7049;49.444;8.522;2023-05-25T23:55:19;-11160.47;;;-3.47;56.15
